createdAt,value
2022-09-28T00:00:34.811Z,80.78
2022-09-28T00:03:04.693Z,81.34
2022-09-28T00:05:34.483Z,80.66
2022-09-28T00:08:04.302Z,81.13
2022-09-28T00:10:34.241Z,81.82
2022-09-28T00:13:03.989Z,81.31
2022-09-28T00:15:35.516Z,81.82
2022-09-28T00:18:05.370Z,81.30
2022-09-28T00:20:35.190Z,81.68
2022-09-28T00:23:04.928Z,81.73
2022-09-28T00:25:34.873Z,81.72
2022-09-28T00:28:05.265Z,81.52
2022-09-28T00:30:36.429Z,81.61
2022-09-28T00:33:06.196Z,81.84
2022-09-28T00:35:36.014Z,81.94
2022-09-28T00:38:05.948Z,81.39
2022-09-28T00:40:36.046Z,80.88
2022-09-28T00:43:19.660Z,80.88
2022-09-28T00:45:56.698Z,80.68
2022-09-28T00:48:30.686Z,80.92
2022-09-28T00:51:04.786Z,81.29
2022-09-28T00:53:37.962Z,81.49
2022-09-28T00:56:12.908Z,82.50
2022-09-28T00:58:46.644Z,82.07
2022-09-28T01:01:18.427Z,82.27
2022-09-28T01:03:49.132Z,82.12
2022-09-28T01:06:21.941Z,81.90
2022-09-28T01:08:54.144Z,81.17
2022-09-28T01:11:24.005Z,82.42
2022-09-28T01:13:56.444Z,82.70
2022-09-28T01:16:35.906Z,83.21
2022-09-28T01:19:25.999Z,83.14
2022-09-28T01:22:09.923Z,82.74
2022-09-28T01:24:43.301Z,83.03
2022-09-28T01:27:21.300Z,82.95
2022-09-28T01:29:58.643Z,82.94
2022-09-28T01:32:36.660Z,83.10
2022-09-28T01:35:12.432Z,82.69
2022-09-28T01:37:48.480Z,83.81
2022-09-28T01:40:19.197Z,82.86
2022-09-28T01:42:56.061Z,82.78
2022-09-28T01:45:30.269Z,82.83
2022-09-28T01:48:06.053Z,82.88
2022-09-28T01:50:39.886Z,83.48
2022-09-28T01:53:16.177Z,82.57
2022-09-28T01:55:49.015Z,83.06
2022-09-28T01:58:25.942Z,83.68
2022-09-28T02:01:01.297Z,83.85
2022-09-28T02:03:36.959Z,83.02
2022-09-28T02:06:12.627Z,83.27
2022-09-28T02:08:50.434Z,83.68
2022-09-28T02:11:22.375Z,83.29
2022-09-28T02:13:58.109Z,83.53
2022-09-28T02:16:35.843Z,82.79
2022-09-28T02:19:08.188Z,83.53
2022-09-28T02:21:44.359Z,82.95
2022-09-28T02:24:21.628Z,83.13
2022-09-28T02:26:53.076Z,82.42
2022-09-28T02:29:24.749Z,83.66
2022-09-28T02:31:54.572Z,83.98
2022-09-28T02:34:24.516Z,83.66
2022-09-28T02:36:54.528Z,83.14
2022-09-28T02:39:24.691Z,82.33
2022-09-28T02:42:05.960Z,83.01
2022-09-28T02:44:58.807Z,83.11
2022-09-28T02:47:39.097Z,83.68
2022-09-28T02:50:17.954Z,84.24
2022-09-28T02:53:12.405Z,84.77
2022-09-28T02:55:50.597Z,83.57
2022-09-28T02:58:29.404Z,83.47
2022-09-28T03:01:08.474Z,83.62
2022-09-28T03:03:47.440Z,83.51
2022-09-28T03:06:24.554Z,83.64
2022-09-28T03:09:01.704Z,82.88
2022-09-28T03:11:36.252Z,82.23
2022-09-28T03:14:07.032Z,82.27
2022-09-28T03:16:38.494Z,81.92
2022-09-28T03:19:08.316Z,81.77
2022-09-28T03:21:38.244Z,82.43
2022-09-28T03:24:11.154Z,82.41
2022-09-28T03:26:40.977Z,81.88
2022-09-28T03:29:10.869Z,81.46
2022-09-28T03:31:42.218Z,81.75
2022-09-28T03:34:12.099Z,82.59
2022-09-28T03:36:41.996Z,82.03
2022-09-28T03:39:11.811Z,81.76
2022-09-28T03:41:41.588Z,82.29
2022-09-28T03:44:11.306Z,81.92
2022-09-28T03:46:43.146Z,82.85
2022-09-28T03:49:13.094Z,82.80
2022-09-28T03:51:43.353Z,83.25
2022-09-28T03:54:13.124Z,83.70
2022-09-28T03:56:43.220Z,83.19
2022-09-28T03:59:13.186Z,83.35
2022-09-28T04:01:44.567Z,82.45
2022-09-28T04:04:14.676Z,83.03
2022-09-28T04:06:44.472Z,82.66
2022-09-28T04:09:14.487Z,83.23
2022-09-28T04:12:02.736Z,83.13
2022-09-28T04:14:34.341Z,82.59
2022-09-28T04:17:06.347Z,82.38
2022-09-28T04:19:36.499Z,82.37
2022-09-28T04:22:06.259Z,82.87
2022-09-28T04:24:37.327Z,82.16
2022-09-28T04:27:23.651Z,82.22
2022-09-28T04:29:53.511Z,82.28
2022-09-28T04:32:24.611Z,81.20
2022-09-28T04:34:55.936Z,81.53
2022-09-28T04:37:25.854Z,81.76
2022-09-28T04:39:55.731Z,81.46
2022-09-28T04:42:25.773Z,80.73
2022-09-28T04:44:57.677Z,81.07
2022-09-28T04:47:30.944Z,81.06
2022-09-28T04:50:00.822Z,81.98
2022-09-28T04:52:30.619Z,81.22
2022-09-28T04:55:00.300Z,81.44
2022-09-28T04:57:30.328Z,81.32
2022-09-28T05:00:00.092Z,81.07
2022-09-28T05:02:31.656Z,80.47
2022-09-28T05:05:02.277Z,80.26
2022-09-28T05:07:32.317Z,80.55
2022-09-28T05:10:02.345Z,80.68
2022-09-28T05:12:32.106Z,80.73
2022-09-28T05:15:03.201Z,79.91
2022-09-28T05:17:34.880Z,79.01
2022-09-28T05:20:05.298Z,78.48
2022-09-28T05:22:35.304Z,77.72
2022-09-28T05:25:05.584Z,77.67
2022-09-28T05:27:35.435Z,77.66
2022-09-28T05:30:05.824Z,76.95
2022-09-28T05:32:40.780Z,76.71
2022-09-28T05:35:11.142Z,77.00
2022-09-28T05:37:41.205Z,77.31
2022-09-28T05:40:12.418Z,76.77
2022-09-28T05:42:42.250Z,77.03
2022-09-28T05:45:12.316Z,77.81
2022-09-28T05:47:46.155Z,77.78
2022-09-28T05:50:16.425Z,76.79
2022-09-28T05:52:46.835Z,77.14
2022-09-28T05:55:16.771Z,77.26
2022-09-28T05:57:48.229Z,76.97
2022-09-28T06:00:19.087Z,76.88
2022-09-28T06:02:59.065Z,76.66
2022-09-28T06:05:29.558Z,76.35
2022-09-28T06:08:00.383Z,75.64
2022-09-28T06:10:30.199Z,75.81
2022-09-28T06:13:00.347Z,76.10
2022-09-28T06:15:34.745Z,76.20
2022-09-28T06:18:08.094Z,76.21
2022-09-28T06:20:41.075Z,75.97
2022-09-28T06:23:11.399Z,75.77
2022-09-28T06:25:41.643Z,75.41
2022-09-28T06:28:13.088Z,75.14
2022-09-28T06:30:45.068Z,74.90
2022-09-28T06:33:18.178Z,74.86
2022-09-28T06:35:48.052Z,74.96
2022-09-28T06:38:17.790Z,74.77
2022-09-28T06:40:47.599Z,74.86
2022-09-28T06:43:17.445Z,74.48
2022-09-28T06:45:52.678Z,74.14
2022-09-28T06:48:23.887Z,73.77
2022-09-28T06:50:53.892Z,73.80
2022-09-28T06:53:23.673Z,73.85
2022-09-28T06:55:53.502Z,73.79
2022-09-28T06:58:24.132Z,73.64
2022-09-28T07:00:54.475Z,73.19
2022-09-28T07:03:25.812Z,72.30
2022-09-28T07:05:58.254Z,71.85
2022-09-28T07:08:29.200Z,71.45
2022-09-28T07:10:59.227Z,70.71
2022-09-28T07:13:49.237Z,70.69
2022-09-28T07:16:25.779Z,70.58
2022-09-28T07:18:58.468Z,69.63
2022-09-28T07:21:30.500Z,69.68
2022-09-28T07:24:01.463Z,69.16
2022-09-28T07:26:33.250Z,68.82
2022-09-28T07:29:03.476Z,68.41
2022-09-28T07:31:34.618Z,68.40
2022-09-28T07:34:05.750Z,68.28
2022-09-28T07:36:36.861Z,68.18
2022-09-28T07:39:07.002Z,67.53
2022-09-28T07:41:36.289Z,67.38
2022-09-28T07:44:06.606Z,67.70
2022-09-28T07:46:37.205Z,67.49
2022-09-28T07:49:11.601Z,67.08
2022-09-28T07:51:44.287Z,66.98
2022-09-28T07:54:14.139Z,66.77
2022-09-28T07:56:43.901Z,66.78
2022-09-28T07:59:17.659Z,66.71
2022-09-28T08:01:49.497Z,66.66
2022-09-28T08:04:20.638Z,66.50
2022-09-28T08:06:51.193Z,65.81
2022-09-28T08:09:21.015Z,65.54
2022-09-28T08:11:50.885Z,65.25
2022-09-28T08:14:20.795Z,64.53
2022-09-28T08:16:53.155Z,64.15
2022-09-28T08:19:25.310Z,64.24
2022-09-28T08:21:54.170Z,63.81
2022-09-28T08:24:24.759Z,63.38
2022-09-28T08:26:55.641Z,63.70
2022-09-28T08:29:25.713Z,63.72
2022-09-28T08:31:59.531Z,62.72
2022-09-28T08:34:32.861Z,62.14
2022-09-28T08:37:02.804Z,62.55
2022-09-28T08:39:34.593Z,61.93
2022-09-28T08:42:32.083Z,61.81
2022-09-28T08:45:09.180Z,61.18
2022-09-28T08:48:07.530Z,61.14
2022-09-28T08:50:48.417Z,60.50
2022-09-28T08:53:36.100Z,60.18
2022-09-28T08:56:12.012Z,60.00
2022-09-28T08:58:44.452Z,59.24
2022-09-28T09:01:19.020Z,58.68
2022-09-28T09:03:50.503Z,59.11
2022-09-28T09:06:30.180Z,58.11
2022-09-28T09:09:09.560Z,58.23
2022-09-28T09:11:52.541Z,58.03
2022-09-28T09:14:51.008Z,57.81
2022-09-28T09:17:32.219Z,58.07
2022-09-28T09:20:12.195Z,57.81
2022-09-28T09:22:58.693Z,56.68
2022-09-28T09:25:36.553Z,56.46
2022-09-28T09:28:35.348Z,56.13
2022-09-28T09:31:11.861Z,55.59
2022-09-28T09:34:02.750Z,54.99
2022-09-28T09:36:43.914Z,55.24
2022-09-28T09:39:30.209Z,54.86
2022-09-28T09:42:13.683Z,54.57
2022-09-28T09:45:01.485Z,51.53
2022-09-28T09:47:34.869Z,52.30
2022-09-28T09:50:12.227Z,53.52
2022-09-28T09:52:51.640Z,51.76
2022-09-28T09:55:30.208Z,49.71
2022-09-28T09:58:10.264Z,49.34
2022-09-28T10:00:42.624Z,50.01
2022-09-28T10:03:21.573Z,50.61
2022-09-28T10:05:58.619Z,50.36
2022-09-28T10:08:30.366Z,51.50
2022-09-28T10:11:10.681Z,49.42
2022-09-28T10:13:41.154Z,47.97
2022-09-28T10:16:11.174Z,49.48
2022-09-28T10:18:42.309Z,50.69
2022-09-28T10:21:14.924Z,49.04
2022-09-28T10:23:46.251Z,49.54
2022-09-28T10:26:25.065Z,48.17
2022-09-28T10:28:59.179Z,48.23
2022-09-28T10:31:37.889Z,47.80
2022-09-28T10:34:09.108Z,46.12
2022-09-28T10:36:48.100Z,44.27
2022-09-28T10:39:29.576Z,44.93
2022-09-28T10:42:04.514Z,42.99
2022-09-28T10:44:39.877Z,43.86
2022-09-28T10:47:14.841Z,43.25
2022-09-28T10:49:48.499Z,42.38
2022-09-28T10:52:36.900Z,41.94
2022-09-28T10:55:27.547Z,42.36
2022-09-28T10:57:58.769Z,41.36
2022-09-28T11:00:36.172Z,39.49
2022-09-28T11:03:06.508Z,40.15
2022-09-28T11:05:38.814Z,39.91
2022-09-28T11:08:09.592Z,40.64
2022-09-28T11:10:39.564Z,42.04
2022-09-28T11:13:11.895Z,42.15
2022-09-28T11:15:44.842Z,43.32
2022-09-28T11:18:26.391Z,44.48
2022-09-28T11:21:12.880Z,44.92
2022-09-28T11:23:55.869Z,45.37
2022-09-28T11:26:25.926Z,47.27
2022-09-28T11:28:57.215Z,47.83
2022-09-28T11:31:29.596Z,47.27
2022-09-28T11:34:13.934Z,47.18
2022-09-28T11:37:06.431Z,48.52
2022-09-28T11:39:47.107Z,47.92
2022-09-28T11:42:30.520Z,48.20
2022-09-28T11:45:14.022Z,47.30
2022-09-28T11:47:51.624Z,46.36
2022-09-28T11:50:43.894Z,46.18
2022-09-28T11:53:22.063Z,47.02
2022-09-28T11:55:59.157Z,47.16
2022-09-28T11:58:34.226Z,47.55
2022-09-28T12:01:14.290Z,47.88
2022-09-28T12:03:51.347Z,48.37
2022-09-28T12:06:26.715Z,47.83
2022-09-28T12:09:04.607Z,46.86
2022-09-28T12:11:40.287Z,46.71
2022-09-28T12:14:19.257Z,46.69
2022-09-28T12:17:10.979Z,47.93
2022-09-28T12:19:46.467Z,46.19
2022-09-28T12:22:22.143Z,45.34
2022-09-28T12:24:56.626Z,46.40
2022-09-28T12:27:33.787Z,46.82
2022-09-28T12:30:06.150Z,46.42
2022-09-28T12:32:42.934Z,43.84
2022-09-28T12:35:14.804Z,45.72
2022-09-28T12:37:58.664Z,44.39
2022-09-28T12:40:42.491Z,45.11
2022-09-28T12:43:37.735Z,44.20
2022-09-28T12:46:30.486Z,44.74
2022-09-28T12:52:28.227Z,42.85
2022-09-28T12:55:23.236Z,46.07
2022-09-28T12:58:00.096Z,46.12
2022-09-28T13:00:40.026Z,43.44
2022-09-28T13:03:32.466Z,42.04
2022-09-28T13:06:29.378Z,41.33
2022-09-28T13:09:16.446Z,40.35
2022-09-28T13:11:59.981Z,41.42
2022-09-28T13:14:53.214Z,42.43
2022-09-28T13:17:37.822Z,41.23
2022-09-28T13:20:32.280Z,40.91
2022-09-28T13:23:15.429Z,41.26
2022-09-28T13:25:50.962Z,41.81
2022-09-28T13:28:27.048Z,41.90
2022-09-28T13:31:00.339Z,41.80
2022-09-28T13:33:36.770Z,42.42
2022-09-28T13:36:42.543Z,41.35
2022-09-28T13:39:38.924Z,41.24
2022-09-28T13:42:11.163Z,40.20
2022-09-28T13:44:59.710Z,40.58
2022-09-28T13:47:49.620Z,40.81
2022-09-28T13:50:28.821Z,40.39
2022-09-28T13:53:05.870Z,40.09
2022-09-28T13:55:50.778Z,40.04
2022-09-28T13:58:27.468Z,40.61
2022-09-28T14:01:03.527Z,40.63
2022-09-28T14:03:53.878Z,40.71
2022-09-28T14:06:27.060Z,40.43
2022-09-28T14:09:25.102Z,41.18
2022-09-28T14:11:58.776Z,41.24
2022-09-28T14:14:32.411Z,41.15
2022-09-28T14:17:50.459Z,41.02
2022-09-28T14:20:26.311Z,39.80
2022-09-28T14:23:33.998Z,40.51
2022-09-28T14:26:33.061Z,42.42
2022-09-28T14:29:17.364Z,42.50
2022-09-28T14:31:47.428Z,44.50
2022-09-28T14:34:34.193Z,45.96
2022-09-28T14:37:23.207Z,45.27
2022-09-28T14:40:11.050Z,46.92
2022-09-28T14:42:41.230Z,46.41
2022-09-28T14:45:46.049Z,44.37
2022-09-28T14:48:21.320Z,45.91
2022-09-28T14:50:51.508Z,47.19
2022-09-28T14:53:24.912Z,45.88
2022-09-28T14:55:58.882Z,44.18
2022-09-28T14:58:30.296Z,44.14
2022-09-28T15:01:06.578Z,44.86
2022-09-28T15:03:40.538Z,48.37
2022-09-28T15:06:16.187Z,49.44
2022-09-28T15:08:46.413Z,49.01
2022-09-28T15:11:19.352Z,50.80
2022-09-28T15:13:53.406Z,51.65
2022-09-28T15:16:25.765Z,51.90
2022-09-28T15:19:22.823Z,53.55
2022-09-28T15:21:52.893Z,55.19
2022-09-28T15:24:30.656Z,57.27
2022-09-28T15:27:01.875Z,53.17
2022-09-28T15:29:33.556Z,52.49
2022-09-28T15:32:04.870Z,52.06
2022-09-28T15:34:54.776Z,52.18
2022-09-28T15:37:27.732Z,49.86
2022-09-28T15:39:59.343Z,48.82
2022-09-28T15:42:29.263Z,47.51
2022-09-28T15:45:07.825Z,47.55
2022-09-28T15:47:40.115Z,48.20
2022-09-28T15:50:23.017Z,48.41
2022-09-28T15:53:00.764Z,48.36
2022-09-28T15:55:33.471Z,49.09
2022-09-28T15:58:08.810Z,49.05
2022-09-28T16:00:38.816Z,49.29
2022-09-28T16:03:24.895Z,49.26
2022-09-28T16:06:07.555Z,49.21
2022-09-28T16:08:42.798Z,50.00
2022-09-28T16:11:18.261Z,50.17
2022-09-28T16:14:01.833Z,49.94
2022-09-28T16:16:35.506Z,49.88
2022-09-28T16:19:07.429Z,50.36
2022-09-28T16:21:44.605Z,50.90
2022-09-28T16:24:23.537Z,51.67
2022-09-28T16:26:59.381Z,51.65
2022-09-28T16:29:39.169Z,51.68
2022-09-28T16:32:42.488Z,52.20
2022-09-28T16:35:26.546Z,52.03
2022-09-28T16:38:03.731Z,52.12
2022-09-28T16:40:35.081Z,51.92
2022-09-28T16:43:08.121Z,52.00
2022-09-28T16:45:39.309Z,52.21
2022-09-28T16:48:11.021Z,52.32
2022-09-28T16:50:42.366Z,51.83
2022-09-28T16:53:32.763Z,52.38
2022-09-28T16:56:04.730Z,52.61
2022-09-28T16:58:39.202Z,53.32
2022-09-28T17:01:12.942Z,53.53
2022-09-28T17:03:46.838Z,53.73
2022-09-28T17:06:20.269Z,53.61
2022-09-28T17:08:50.017Z,53.53
2022-09-28T17:11:24.633Z,52.98
2022-09-28T17:13:59.107Z,52.91
2022-09-28T17:16:58.201Z,53.35
2022-09-28T17:19:25.617Z,53.91
2022-09-28T17:21:57.168Z,54.41
2022-09-28T17:24:26.976Z,53.78
2022-09-28T17:26:56.983Z,53.80
2022-09-28T17:29:27.756Z,54.03
2022-09-28T17:31:57.572Z,53.98
2022-09-28T17:34:27.644Z,54.84
2022-09-28T17:36:58.850Z,54.47
2022-09-28T17:39:28.652Z,54.67
2022-09-28T17:41:58.730Z,55.04
2022-09-28T17:44:29.212Z,54.62
2022-09-28T17:47:00.654Z,55.08
2022-09-28T17:49:30.419Z,55.00
2022-09-28T17:52:02.017Z,55.53
2022-09-28T17:54:33.841Z,55.28
2022-09-28T17:57:03.582Z,55.55
2022-09-28T17:59:33.355Z,55.60
2022-09-28T18:02:04.563Z,55.79
2022-09-28T18:04:51.378Z,56.22
2022-09-28T18:07:24.895Z,56.42
2022-09-28T18:09:56.723Z,56.65
2022-09-28T18:12:26.760Z,56.27
2022-09-28T18:14:56.547Z,57.41
2022-09-28T18:17:26.529Z,56.42
2022-09-28T18:19:56.709Z,57.31
2022-09-28T18:22:27.897Z,56.35
2022-09-28T18:24:57.881Z,57.47
2022-09-28T18:27:29.329Z,56.76
2022-09-28T18:29:59.247Z,57.27
2022-09-28T18:32:29.371Z,57.28
2022-09-28T18:35:00.747Z,57.33
2022-09-28T18:37:32.067Z,57.68
2022-09-28T18:40:02.755Z,57.93
2022-09-28T18:42:35.811Z,57.74
2022-09-28T18:45:07.864Z,57.54
2022-09-28T18:47:38.049Z,58.01
2022-09-28T18:50:09.011Z,58.34
2022-09-28T18:52:41.151Z,58.34
2022-09-28T18:55:12.889Z,58.98
2022-09-28T18:57:44.180Z,59.36
2022-09-28T19:00:16.083Z,58.90
2022-09-28T19:02:50.290Z,59.00
2022-09-28T19:05:20.568Z,59.33
2022-09-28T19:07:52.442Z,59.12
2022-09-28T19:10:22.538Z,59.33
2022-09-28T19:12:53.087Z,59.40
2022-09-28T19:15:22.964Z,59.73
2022-09-28T19:17:52.960Z,59.74
2022-09-28T19:20:22.989Z,59.89
2022-09-28T19:22:54.160Z,59.69
2022-09-28T19:25:24.340Z,59.93
2022-09-28T19:27:54.369Z,59.37
2022-09-28T19:30:24.720Z,59.58
2022-09-28T19:32:54.553Z,59.23
2022-09-28T19:35:24.312Z,59.16
2022-09-28T19:37:56.141Z,57.94
2022-09-28T19:40:26.017Z,57.78
2022-09-28T19:42:55.779Z,57.05
2022-09-28T19:45:25.900Z,57.13
2022-09-28T19:47:59.572Z,57.25
2022-09-28T19:50:29.175Z,57.21
2022-09-28T19:53:01.670Z,57.02
2022-09-28T19:55:37.012Z,57.09
2022-09-28T19:58:06.793Z,57.04
2022-09-28T20:00:39.849Z,57.20
2022-09-28T20:03:09.716Z,57.99
2022-09-28T20:05:41.497Z,57.66
2022-09-28T20:08:14.884Z,57.51
2022-09-28T20:10:52.347Z,57.59
2022-09-28T20:13:22.835Z,57.83
2022-09-28T20:15:53.960Z,57.78
2022-09-28T20:18:23.806Z,58.34
2022-09-28T20:21:02.657Z,58.13
2022-09-28T20:23:36.203Z,58.97
2022-09-28T20:26:07.078Z,58.39
2022-09-28T20:28:36.905Z,58.39
2022-09-28T20:31:08.351Z,58.47
2022-09-28T20:33:38.926Z,58.77
2022-09-28T20:36:10.825Z,59.15
2022-09-28T20:38:42.455Z,59.34
2022-09-28T20:41:13.557Z,59.59
2022-09-28T20:43:43.355Z,59.53
2022-09-28T20:46:14.525Z,60.09
2022-09-28T20:48:44.720Z,60.27
2022-09-28T20:51:16.365Z,60.17
2022-09-28T20:53:50.944Z,60.52
2022-09-28T20:56:23.029Z,60.39
2022-09-28T20:58:53.938Z,60.69
2022-09-28T21:01:25.466Z,60.85
2022-09-28T21:03:56.595Z,61.12
2022-09-28T21:06:28.157Z,61.70
2022-09-28T21:08:59.993Z,61.39
2022-09-28T21:11:31.081Z,61.43
2022-09-28T21:14:02.375Z,62.09
2022-09-28T21:16:33.675Z,62.19
2022-09-28T21:19:04.058Z,61.98
2022-09-28T21:21:34.855Z,62.53
2022-09-28T21:24:06.871Z,62.83
2022-09-28T21:26:36.753Z,62.71
2022-09-28T21:29:08.692Z,62.81
2022-09-28T21:31:40.392Z,62.98
2022-09-28T21:34:13.819Z,63.18
2022-09-28T21:36:44.170Z,62.21
2022-09-28T21:39:15.598Z,61.79
2022-09-28T21:41:45.814Z,61.30
2022-09-28T21:44:15.878Z,60.93
2022-09-28T21:46:45.798Z,60.34
2022-09-28T21:49:15.684Z,60.18
2022-09-28T21:51:47.177Z,59.94
2022-09-28T21:54:18.442Z,60.12
2022-09-28T21:56:48.511Z,60.14
2022-09-28T21:59:18.261Z,60.57
2022-09-28T22:01:48.296Z,60.36
2022-09-28T22:04:18.147Z,60.47
2022-09-28T22:06:47.999Z,60.28
2022-09-28T22:09:19.303Z,60.57
2022-09-28T22:11:53.886Z,60.38
2022-09-28T22:14:23.711Z,60.50
2022-09-28T22:16:53.604Z,60.48
2022-09-28T22:19:23.359Z,60.67
2022-09-28T22:21:53.108Z,60.70
2022-09-28T22:24:24.875Z,60.95
2022-09-28T22:26:54.707Z,60.63
2022-09-28T22:29:24.494Z,60.20
2022-09-28T22:32:00.161Z,60.79
2022-09-28T22:34:31.683Z,61.19
2022-09-28T22:37:02.960Z,60.92
2022-09-28T22:39:37.503Z,61.06
2022-09-28T22:42:07.829Z,61.31
2022-09-28T22:44:37.779Z,61.14
2022-09-28T22:47:07.627Z,61.22
2022-09-28T22:49:37.385Z,61.48
2022-09-28T22:52:07.335Z,61.42
2022-09-28T22:54:40.382Z,60.79
2022-09-28T22:57:10.195Z,60.27
2022-09-28T22:59:40.035Z,60.46
2022-09-28T23:02:10.084Z,60.44
2022-09-28T23:04:39.811Z,60.53
2022-09-28T23:07:09.827Z,60.60
2022-09-28T23:09:40.984Z,60.60
2022-09-28T23:12:10.815Z,60.29
2022-09-28T23:14:40.915Z,60.64
2022-09-28T23:17:10.748Z,61.04
2022-09-28T23:19:41.082Z,61.13
2022-09-28T23:22:10.937Z,61.50
2022-09-28T23:24:42.051Z,61.77
2022-09-28T23:27:11.900Z,62.20
2022-09-28T23:29:46.819Z,62.42
2022-09-28T23:32:17.998Z,62.74
2022-09-28T23:34:47.777Z,63.29
2022-09-28T23:37:17.575Z,62.86
2022-09-28T23:39:48.664Z,63.31
2022-09-28T23:42:18.497Z,63.18
2022-09-28T23:44:48.351Z,63.42
2022-09-28T23:47:18.289Z,63.40
2022-09-28T23:49:48.091Z,63.55
2022-09-28T23:52:18.073Z,63.33
2022-09-28T23:54:59.116Z,63.82
2022-09-28T23:57:28.964Z,63.71
2022-09-28T23:59:58.695Z,63.69
